sensor_id;sensor_type;location;lat;lon;timestamp;temperature;humidity
3564;DHT22;1796;52.388;13.096;2023-11-22T00:02:18;-0.20;99.90
3564;DHT22;1796;52.388;13.096;2023-11-22T00:04:45;-0.20;99.90
3564;DHT22;1796;52.388;13.096;2023-11-22T00:07:12;-0.30;99.90
3564;DHT22;1796;52.388;13.096;2023-11-22T00:09:39;-0.30;99.90
3564;DHT22;1796;52.388;13.096;2023-11-22T00:12:07;-0.20;99.90
3564;DHT22;1796;52.388;13.096;2023-11-22T00:14:35;-0.20;99.90
3564;DHT22;1796;52.388;13.096;2023-11-22T00:17:03;-0.20;99.90
3564;DHT22;1796;52.388;13.096;2023-11-22T00:19:30;-0.20;99.90
3564;DHT22;1796;52.388;13.096;2023-11-22T00:21:58;-0.30;99.90
3564;DHT22;1796;52.388;13.096;2023-11-22T00:24:25;-0.30;99.90
3564;DHT22;1796;52.388;13.096;2023-11-22T00:26:51;-0.20;99.90
3564;DHT22;1796;52.388;13.096;2023-11-22T00:29:18;-0.20;99.90
3564;DHT22;1796;52.388;13.096;2023-11-22T00:31:45;-0.20;99.90
3564;DHT22;1796;52.388;13.096;2023-11-22T00:34:13;-0.20;99.90
3564;DHT22;1796;52.388;13.096;2023-11-22T00:36:40;-0.10;99.90
3564;DHT22;1796;52.388;13.096;2023-11-22T00:39:07;-0.20;99.90
3564;DHT22;1796;52.388;13.096;2023-11-22T00:41:35;-0.10;99.90
3564;DHT22;1796;52.388;13.096;2023-11-22T00:44:02;-0.10;99.90
3564;DHT22;1796;52.388;13.096;2023-11-22T00:46:29;-0.10;99.90
3564;DHT22;1796;52.388;13.096;2023-11-22T00:48:56;-0.10;99.90
3564;DHT22;1796;52.388;13.096;2023-11-22T00:51:24;-0.10;99.90
3564;DHT22;1796;52.388;13.096;2023-11-22T00:53:51;-0.10;99.90
3564;DHT22;1796;52.388;13.096;2023-11-22T00:56:18;-0.10;99.90
3564;DHT22;1796;52.388;13.096;2023-11-22T00:58:45;-0.20;99.90
3564;DHT22;1796;52.388;13.096;2023-11-22T01:01:13;-0.20;99.90
3564;DHT22;1796;52.388;13.096;2023-11-22T01:03:40;-0.20;99.90
3564;DHT22;1796;52.388;13.096;2023-11-22T01:06:07;-0.30;99.90
3564;DHT22;1796;52.388;13.096;2023-11-22T01:08:36;-0.30;99.90
3564;DHT22;1796;52.388;13.096;2023-11-22T01:11:03;-0.30;99.90
3564;DHT22;1796;52.388;13.096;2023-11-22T01:13:31;-0.30;99.90
3564;DHT22;1796;52.388;13.096;2023-11-22T01:15:58;-0.30;99.90
3564;DHT22;1796;52.388;13.096;2023-11-22T01:18:25;-0.40;99.90
3564;DHT22;1796;52.388;13.096;2023-11-22T01:20:52;-0.40;99.90
3564;DHT22;1796;52.388;13.096;2023-11-22T01:23:19;-0.40;99.90
3564;DHT22;1796;52.388;13.096;2023-11-22T01:25:47;-0.50;99.90
3564;DHT22;1796;52.388;13.096;2023-11-22T01:28:15;-0.50;99.90
3564;DHT22;1796;52.388;13.096;2023-11-22T01:30:42;-0.50;99.90
3564;DHT22;1796;52.388;13.096;2023-11-22T01:33:11;-0.50;99.90
3564;DHT22;1796;52.388;13.096;2023-11-22T01:35:38;-0.60;99.90
3564;DHT22;1796;52.388;13.096;2023-11-22T01:38:05;-0.80;99.90
3564;DHT22;1796;52.388;13.096;2023-11-22T01:40:32;-0.80;99.90
3564;DHT22;1796;52.388;13.096;2023-11-22T01:43:00;-0.80;99.90
3564;DHT22;1796;52.388;13.096;2023-11-22T01:45:28;-0.90;99.90
3564;DHT22;1796;52.388;13.096;2023-11-22T01:47:55;-0.90;99.90
3564;DHT22;1796;52.388;13.096;2023-11-22T01:50:22;-0.90;99.90
3564;DHT22;1796;52.388;13.096;2023-11-22T01:52:49;-0.90;99.90
3564;DHT22;1796;52.388;13.096;2023-11-22T01:55:16;-0.90;99.90
3564;DHT22;1796;52.388;13.096;2023-11-22T01:57:43;-1.00;99.90
3564;DHT22;1796;52.388;13.096;2023-11-22T02:00:13;-1.00;99.90
3564;DHT22;1796;52.388;13.096;2023-11-22T02:02:40;-0.90;99.90
3564;DHT22;1796;52.388;13.096;2023-11-22T02:05:08;-0.90;99.90
3564;DHT22;1796;52.388;13.096;2023-11-22T02:07:37;-0.90;99.90
3564;DHT22;1796;52.388;13.096;2023-11-22T02:10:07;-0.90;99.90
3564;DHT22;1796;52.388;13.096;2023-11-22T02:12:34;-0.90;99.90
3564;DHT22;1796;52.388;13.096;2023-11-22T02:15:01;-1.00;99.90
3564;DHT22;1796;52.388;13.096;2023-11-22T02:17:30;-1.00;99.90
3564;DHT22;1796;52.388;13.096;2023-11-22T02:19:56;-1.00;99.90
3564;DHT22;1796;52.388;13.096;2023-11-22T02:22:23;-1.00;99.90
3564;DHT22;1796;52.388;13.096;2023-11-22T02:24:52;-1.10;99.90
3564;DHT22;1796;52.388;13.096;2023-11-22T02:27:19;-1.00;99.90
3564;DHT22;1796;52.388;13.096;2023-11-22T02:29:45;-1.10;99.90
3564;DHT22;1796;52.388;13.096;2023-11-22T02:32:12;-1.10;99.90
3564;DHT22;1796;52.388;13.096;2023-11-22T02:34:39;-1.10;99.90
3564;DHT22;1796;52.388;13.096;2023-11-22T02:37:06;-1.10;99.90
3564;DHT22;1796;52.388;13.096;2023-11-22T02:39:41;-1.10;99.90
3564;DHT22;1796;52.388;13.096;2023-11-22T02:42:11;-1.10;99.90
3564;DHT22;1796;52.388;13.096;2023-11-22T02:44:38;-1.00;99.90
3564;DHT22;1796;52.388;13.096;2023-11-22T02:47:05;-1.00;99.90
3564;DHT22;1796;52.388;13.096;2023-11-22T02:49:32;-1.10;99.90
3564;DHT22;1796;52.388;13.096;2023-11-22T02:51:59;-1.00;99.90
3564;DHT22;1796;52.388;13.096;2023-11-22T02:54:26;-1.00;99.90
3564;DHT22;1796;52.388;13.096;2023-11-22T02:56:54;-1.00;99.90
3564;DHT22;1796;52.388;13.096;2023-11-22T02:59:22;-1.00;99.90
3564;DHT22;1796;52.388;13.096;2023-11-22T03:01:50;-1.00;99.90
3564;DHT22;1796;52.388;13.096;2023-11-22T03:04:17;-1.00;99.90
3564;DHT22;1796;52.388;13.096;2023-11-22T03:06:44;-1.10;99.90
3564;DHT22;1796;52.388;13.096;2023-11-22T03:09:10;-1.00;99.90
3564;DHT22;1796;52.388;13.096;2023-11-22T03:12:00;-1.00;99.90
3564;DHT22;1796;52.388;13.096;2023-11-22T03:14:29;-1.00;99.90
3564;DHT22;1796;52.388;13.096;2023-11-22T03:16:56;-1.10;99.90
3564;DHT22;1796;52.388;13.096;2023-11-22T03:19:23;-1.10;99.90
3564;DHT22;1796;52.388;13.096;2023-11-22T03:21:50;-1.00;99.90
3564;DHT22;1796;52.388;13.096;2023-11-22T03:24:16;-1.10;99.90
3564;DHT22;1796;52.388;13.096;2023-11-22T03:26:43;-1.20;99.90
3564;DHT22;1796;52.388;13.096;2023-11-22T03:29:11;-1.20;99.90
3564;DHT22;1796;52.388;13.096;2023-11-22T03:31:39;-1.30;99.90
3564;DHT22;1796;52.388;13.096;2023-11-22T03:34:05;-1.30;99.90
3564;DHT22;1796;52.388;13.096;2023-11-22T03:36:32;-1.40;99.90
3564;DHT22;1796;52.388;13.096;2023-11-22T03:38:59;-1.40;99.90
3564;DHT22;1796;52.388;13.096;2023-11-22T03:41:26;-1.30;99.90
3564;DHT22;1796;52.388;13.096;2023-11-22T03:43:53;-1.40;99.90
3564;DHT22;1796;52.388;13.096;2023-11-22T03:46:20;-1.30;99.90
3564;DHT22;1796;52.388;13.096;2023-11-22T03:48:48;-1.30;99.90
3564;DHT22;1796;52.388;13.096;2023-11-22T03:51:15;-1.30;99.90
3564;DHT22;1796;52.388;13.096;2023-11-22T03:53:42;-1.30;99.90
3564;DHT22;1796;52.388;13.096;2023-11-22T03:56:09;-1.40;99.90
3564;DHT22;1796;52.388;13.096;2023-11-22T03:58:36;-1.50;99.90
3564;DHT22;1796;52.388;13.096;2023-11-22T04:01:03;-1.60;99.90
3564;DHT22;1796;52.388;13.096;2023-11-22T04:03:30;-1.70;99.90
3564;DHT22;1796;52.388;13.096;2023-11-22T04:05:58;-1.80;99.90
3564;DHT22;1796;52.388;13.096;2023-11-22T04:08:25;-1.80;99.90
3564;DHT22;1796;52.388;13.096;2023-11-22T04:10:52;-2.00;99.90
3564;DHT22;1796;52.388;13.096;2023-11-22T04:13:18;-2.00;99.90
3564;DHT22;1796;52.388;13.096;2023-11-22T04:15:46;-1.90;99.90
3564;DHT22;1796;52.388;13.096;2023-11-22T04:18:13;-2.00;99.90
3564;DHT22;1796;52.388;13.096;2023-11-22T04:20:40;-2.00;99.90
3564;DHT22;1796;52.388;13.096;2023-11-22T04:23:08;-2.00;99.90
3564;DHT22;1796;52.388;13.096;2023-11-22T04:25:36;-2.00;99.90
3564;DHT22;1796;52.388;13.096;2023-11-22T04:28:03;-2.20;99.90
3564;DHT22;1796;52.388;13.096;2023-11-22T04:30:30;-2.30;99.90
3564;DHT22;1796;52.388;13.096;2023-11-22T04:32:57;-2.10;99.90
3564;DHT22;1796;52.388;13.096;2023-11-22T04:35:25;-2.10;99.90
3564;DHT22;1796;52.388;13.096;2023-11-22T04:37:52;-2.20;99.90
3564;DHT22;1796;52.388;13.096;2023-11-22T04:40:22;-2.20;99.90
3564;DHT22;1796;52.388;13.096;2023-11-22T04:42:48;-2.40;99.90
3564;DHT22;1796;52.388;13.096;2023-11-22T04:45:16;-2.50;99.90
3564;DHT22;1796;52.388;13.096;2023-11-22T04:47:43;-2.30;99.90
3564;DHT22;1796;52.388;13.096;2023-11-22T04:50:10;-2.30;99.90
3564;DHT22;1796;52.388;13.096;2023-11-22T04:52:37;-2.30;99.90
3564;DHT22;1796;52.388;13.096;2023-11-22T04:55:05;-2.30;99.90
3564;DHT22;1796;52.388;13.096;2023-11-22T04:57:33;-2.30;99.90
3564;DHT22;1796;52.388;13.096;2023-11-22T05:00:00;-2.30;99.90
3564;DHT22;1796;52.388;13.096;2023-11-22T05:02:29;-2.30;99.90
3564;DHT22;1796;52.388;13.096;2023-11-22T05:04:56;-2.20;99.90
3564;DHT22;1796;52.388;13.096;2023-11-22T05:07:22;-2.20;99.90
3564;DHT22;1796;52.388;13.096;2023-11-22T05:09:49;-2.40;99.90
3564;DHT22;1796;52.388;13.096;2023-11-22T05:12:16;-2.40;99.90
3564;DHT22;1796;52.388;13.096;2023-11-22T05:14:44;-2.50;99.90
3564;DHT22;1796;52.388;13.096;2023-11-22T05:17:11;-2.50;99.90
3564;DHT22;1796;52.388;13.096;2023-11-22T05:19:38;-2.50;99.90
3564;DHT22;1796;52.388;13.096;2023-11-22T05:22:05;-2.60;99.90
3564;DHT22;1796;52.388;13.096;2023-11-22T05:24:33;-2.60;99.90
3564;DHT22;1796;52.388;13.096;2023-11-22T05:27:00;-2.60;99.90
3564;DHT22;1796;52.388;13.096;2023-11-22T05:29:27;-2.70;99.90
3564;DHT22;1796;52.388;13.096;2023-11-22T05:31:55;-2.80;99.90
3564;DHT22;1796;52.388;13.096;2023-11-22T05:34:22;-2.90;99.90
3564;DHT22;1796;52.388;13.096;2023-11-22T05:36:49;-2.90;99.90
3564;DHT22;1796;52.388;13.096;2023-11-22T05:39:16;-2.90;99.90
3564;DHT22;1796;52.388;13.096;2023-11-22T05:41:43;-2.90;99.90
3564;DHT22;1796;52.388;13.096;2023-11-22T05:44:10;-2.90;99.90
3564;DHT22;1796;52.388;13.096;2023-11-22T05:46:37;-3.00;99.90
3564;DHT22;1796;52.388;13.096;2023-11-22T05:49:05;-2.80;99.90
3564;DHT22;1796;52.388;13.096;2023-11-22T05:51:32;-2.80;99.90
3564;DHT22;1796;52.388;13.096;2023-11-22T05:53:59;-2.70;99.90
3564;DHT22;1796;52.388;13.096;2023-11-22T05:56:26;-2.70;99.90
3564;DHT22;1796;52.388;13.096;2023-11-22T05:58:54;-2.90;99.90
3564;DHT22;1796;52.388;13.096;2023-11-22T06:01:21;-3.00;99.90
3564;DHT22;1796;52.388;13.096;2023-11-22T06:03:48;-2.90;99.90
3564;DHT22;1796;52.388;13.096;2023-11-22T06:06:16;-3.10;99.90
3564;DHT22;1796;52.388;13.096;2023-11-22T06:08:43;-3.10;99.90
3564;DHT22;1796;52.388;13.096;2023-11-22T06:11:10;-3.20;99.90
3564;DHT22;1796;52.388;13.096;2023-11-22T06:13:39;-3.00;99.90
3564;DHT22;1796;52.388;13.096;2023-11-22T06:16:06;-3.00;99.90
3564;DHT22;1796;52.388;13.096;2023-11-22T06:18:33;-3.00;99.90
3564;DHT22;1796;52.388;13.096;2023-11-22T06:21:05;-3.00;99.90
3564;DHT22;1796;52.388;13.096;2023-11-22T06:23:33;-3.10;99.90
3564;DHT22;1796;52.388;13.096;2023-11-22T06:26:00;-3.20;99.90
3564;DHT22;1796;52.388;13.096;2023-11-22T06:28:27;-3.20;99.90
3564;DHT22;1796;52.388;13.096;2023-11-22T06:30:55;-3.30;99.90
3564;DHT22;1796;52.388;13.096;2023-11-22T06:33:21;-3.30;99.90
3564;DHT22;1796;52.388;13.096;2023-11-22T06:35:48;-3.20;99.90
3564;DHT22;1796;52.388;13.096;2023-11-22T06:38:15;-3.10;99.90
3564;DHT22;1796;52.388;13.096;2023-11-22T06:40:44;-3.10;99.90
3564;DHT22;1796;52.388;13.096;2023-11-22T06:43:11;-3.10;99.90
3564;DHT22;1796;52.388;13.096;2023-11-22T06:45:38;-3.10;99.90
3564;DHT22;1796;52.388;13.096;2023-11-22T06:48:05;-3.10;99.90
3564;DHT22;1796;52.388;13.096;2023-11-22T06:50:32;-3.00;99.90
3564;DHT22;1796;52.388;13.096;2023-11-22T06:52:59;-3.10;99.90
3564;DHT22;1796;52.388;13.096;2023-11-22T06:55:25;-3.00;99.90
3564;DHT22;1796;52.388;13.096;2023-11-22T06:57:54;-2.90;99.90
3564;DHT22;1796;52.388;13.096;2023-11-22T07:00:21;-2.90;99.90
3564;DHT22;1796;52.388;13.096;2023-11-22T07:02:48;-2.90;99.90
3564;DHT22;1796;52.388;13.096;2023-11-22T07:05:15;-2.80;99.90
3564;DHT22;1796;52.388;13.096;2023-11-22T07:07:42;-2.80;99.90
3564;DHT22;1796;52.388;13.096;2023-11-22T07:10:09;-2.80;99.90
3564;DHT22;1796;52.388;13.096;2023-11-22T07:12:37;-2.90;99.90
3564;DHT22;1796;52.388;13.096;2023-11-22T07:15:07;-2.80;99.90
3564;DHT22;1796;52.388;13.096;2023-11-22T07:20:11;-2.70;99.90
3564;DHT22;1796;52.388;13.096;2023-11-22T07:22:41;-2.80;99.90
3564;DHT22;1796;52.388;13.096;2023-11-22T07:25:09;-2.90;99.90
3564;DHT22;1796;52.388;13.096;2023-11-22T07:27:44;-2.80;99.90
3564;DHT22;1796;52.388;13.096;2023-11-22T07:30:14;-2.70;99.90
3564;DHT22;1796;52.388;13.096;2023-11-22T07:32:41;-2.70;99.90
3564;DHT22;1796;52.388;13.096;2023-11-22T07:35:08;-2.70;99.90
3564;DHT22;1796;52.388;13.096;2023-11-22T07:37:35;-2.80;99.90
3564;DHT22;1796;52.388;13.096;2023-11-22T07:40:06;-2.80;99.90
3564;DHT22;1796;52.388;13.096;2023-11-22T07:42:33;-2.70;99.90
3564;DHT22;1796;52.388;13.096;2023-11-22T07:45:00;-2.50;99.90
3564;DHT22;1796;52.388;13.096;2023-11-22T07:47:28;-2.60;99.90
3564;DHT22;1796;52.388;13.096;2023-11-22T07:49:55;-2.50;99.90
3564;DHT22;1796;52.388;13.096;2023-11-22T07:52:22;-2.50;99.90
3564;DHT22;1796;52.388;13.096;2023-11-22T07:54:55;-2.40;99.90
3564;DHT22;1796;52.388;13.096;2023-11-22T07:57:22;-2.30;99.90
3564;DHT22;1796;52.388;13.096;2023-11-22T07:59:49;-2.30;99.90
3564;DHT22;1796;52.388;13.096;2023-11-22T08:02:16;-2.30;99.90
3564;DHT22;1796;52.388;13.096;2023-11-22T08:04:45;-2.30;99.90
3564;DHT22;1796;52.388;13.096;2023-11-22T08:07:13;-2.30;99.90
3564;DHT22;1796;52.388;13.096;2023-11-22T08:09:40;-2.30;99.90
3564;DHT22;1796;52.388;13.096;2023-11-22T08:12:07;-2.20;99.90
3564;DHT22;1796;52.388;13.096;2023-11-22T08:14:36;-2.20;99.90
3564;DHT22;1796;52.388;13.096;2023-11-22T08:17:03;-2.20;99.90
3564;DHT22;1796;52.388;13.096;2023-11-22T08:19:31;-2.10;99.90
3564;DHT22;1796;52.388;13.096;2023-11-22T08:21:59;-2.10;99.90
3564;DHT22;1796;52.388;13.096;2023-11-22T08:24:26;-2.00;99.90
3564;DHT22;1796;52.388;13.096;2023-11-22T08:26:53;-1.90;99.90
3564;DHT22;1796;52.388;13.096;2023-11-22T08:29:20;-1.90;99.90
3564;DHT22;1796;52.388;13.096;2023-11-22T08:31:47;-1.90;99.90
3564;DHT22;1796;52.388;13.096;2023-11-22T08:34:16;-1.80;99.90
3564;DHT22;1796;52.388;13.096;2023-11-22T08:36:43;-1.80;99.90
3564;DHT22;1796;52.388;13.096;2023-11-22T08:39:11;-1.70;99.90
3564;DHT22;1796;52.388;13.096;2023-11-22T08:41:38;-1.60;99.90
3564;DHT22;1796;52.388;13.096;2023-11-22T08:44:05;-1.50;99.90
3564;DHT22;1796;52.388;13.096;2023-11-22T08:46:32;-1.40;99.90
3564;DHT22;1796;52.388;13.096;2023-11-22T08:48:59;-1.40;99.90
3564;DHT22;1796;52.388;13.096;2023-11-22T08:51:27;-1.30;99.90
3564;DHT22;1796;52.388;13.096;2023-11-22T08:53:54;-1.20;99.90
3564;DHT22;1796;52.388;13.096;2023-11-22T08:56:22;-1.30;99.90
3564;DHT22;1796;52.388;13.096;2023-11-22T08:58:50;-1.20;99.90
3564;DHT22;1796;52.388;13.096;2023-11-22T09:01:16;-1.20;99.90
3564;DHT22;1796;52.388;13.096;2023-11-22T09:03:44;-1.30;99.90
3564;DHT22;1796;52.388;13.096;2023-11-22T09:06:11;-1.30;99.90
3564;DHT22;1796;52.388;13.096;2023-11-22T09:08:38;-1.30;99.90
3564;DHT22;1796;52.388;13.096;2023-11-22T09:11:05;-1.20;99.90
3564;DHT22;1796;52.388;13.096;2023-11-22T09:13:33;-1.30;99.90
3564;DHT22;1796;52.388;13.096;2023-11-22T09:16:01;-1.20;99.90
3564;DHT22;1796;52.388;13.096;2023-11-22T09:18:30;-1.10;99.90
3564;DHT22;1796;52.388;13.096;2023-11-22T09:20:57;-1.00;99.90
3564;DHT22;1796;52.388;13.096;2023-11-22T09:23:24;-1.00;99.90
3564;DHT22;1796;52.388;13.096;2023-11-22T09:25:52;-1.00;99.90
3564;DHT22;1796;52.388;13.096;2023-11-22T09:28:18;-1.00;99.90
3564;DHT22;1796;52.388;13.096;2023-11-22T09:30:47;-1.00;99.90
3564;DHT22;1796;52.388;13.096;2023-11-22T09:33:15;-1.00;99.90
3564;DHT22;1796;52.388;13.096;2023-11-22T09:35:43;-0.90;99.90
3564;DHT22;1796;52.388;13.096;2023-11-22T09:38:11;-0.80;99.90
3564;DHT22;1796;52.388;13.096;2023-11-22T09:40:41;-0.60;99.90
3564;DHT22;1796;52.388;13.096;2023-11-22T09:43:09;-0.50;99.90
3564;DHT22;1796;52.388;13.096;2023-11-22T09:45:36;-0.50;99.90
3564;DHT22;1796;52.388;13.096;2023-11-22T09:48:13;-0.50;99.90
3564;DHT22;1796;52.388;13.096;2023-11-22T09:50:49;-0.40;99.90
3564;DHT22;1796;52.388;13.096;2023-11-22T09:53:22;-0.30;99.90
3564;DHT22;1796;52.388;13.096;2023-11-22T09:55:52;-0.30;99.90
3564;DHT22;1796;52.388;13.096;2023-11-22T09:58:20;-0.20;99.90
3564;DHT22;1796;52.388;13.096;2023-11-22T10:00:47;-0.10;99.90
3564;DHT22;1796;52.388;13.096;2023-11-22T10:03:16;0.10;99.90
3564;DHT22;1796;52.388;13.096;2023-11-22T10:05:44;0.20;99.90
3564;DHT22;1796;52.388;13.096;2023-11-22T10:08:10;0.30;99.90
3564;DHT22;1796;52.388;13.096;2023-11-22T10:10:37;0.30;99.90
3564;DHT22;1796;52.388;13.096;2023-11-22T10:13:05;0.30;99.90
3564;DHT22;1796;52.388;13.096;2023-11-22T10:15:32;0.30;99.90
3564;DHT22;1796;52.388;13.096;2023-11-22T10:17:59;0.30;99.90
3564;DHT22;1796;52.388;13.096;2023-11-22T10:20:36;0.40;99.90
3564;DHT22;1796;52.388;13.096;2023-11-22T10:23:03;0.50;99.90
3564;DHT22;1796;52.388;13.096;2023-11-22T10:25:30;0.50;99.90
3564;DHT22;1796;52.388;13.096;2023-11-22T10:27:58;0.60;99.90
3564;DHT22;1796;52.388;13.096;2023-11-22T10:30:24;0.70;99.90
3564;DHT22;1796;52.388;13.096;2023-11-22T10:32:54;0.70;99.90
3564;DHT22;1796;52.388;13.096;2023-11-22T10:35:21;0.60;99.90
3564;DHT22;1796;52.388;13.096;2023-11-22T10:37:49;0.60;99.90
3564;DHT22;1796;52.388;13.096;2023-11-22T10:40:16;0.60;99.90
3564;DHT22;1796;52.388;13.096;2023-11-22T10:42:43;0.60;99.90
3564;DHT22;1796;52.388;13.096;2023-11-22T10:45:10;0.70;99.90
3564;DHT22;1796;52.388;13.096;2023-11-22T10:47:38;0.80;99.90
3564;DHT22;1796;52.388;13.096;2023-11-22T10:50:08;0.90;99.90
3564;DHT22;1796;52.388;13.096;2023-11-22T10:52:36;0.80;99.90
3564;DHT22;1796;52.388;13.096;2023-11-22T10:55:05;0.80;99.90
3564;DHT22;1796;52.388;13.096;2023-11-22T10:57:36;0.80;99.90
3564;DHT22;1796;52.388;13.096;2023-11-22T11:00:08;0.80;99.90
3564;DHT22;1796;52.388;13.096;2023-11-22T11:02:41;0.80;99.90
3564;DHT22;1796;52.388;13.096;2023-11-22T11:05:15;0.70;99.90
3564;DHT22;1796;52.388;13.096;2023-11-22T11:07:48;0.80;99.90
3564;DHT22;1796;52.388;13.096;2023-11-22T11:10:18;0.90;99.90
3564;DHT22;1796;52.388;13.096;2023-11-22T11:12:46;1.00;99.90
3564;DHT22;1796;52.388;13.096;2023-11-22T11:15:14;1.00;99.90
3564;DHT22;1796;52.388;13.096;2023-11-22T11:17:44;1.00;99.90
3564;DHT22;1796;52.388;13.096;2023-11-22T11:20:15;1.10;99.90
3564;DHT22;1796;52.388;13.096;2023-11-22T11:22:43;1.10;99.90
3564;DHT22;1796;52.388;13.096;2023-11-22T11:25:16;1.20;99.90
3564;DHT22;1796;52.388;13.096;2023-11-22T11:27:44;1.20;99.90
3564;DHT22;1796;52.388;13.096;2023-11-22T11:30:43;1.10;99.90
3564;DHT22;1796;52.388;13.096;2023-11-22T11:33:12;1.10;99.90
3564;DHT22;1796;52.388;13.096;2023-11-22T11:35:42;1.00;99.90
3564;DHT22;1796;52.388;13.096;2023-11-22T11:38:12;1.00;99.90
3564;DHT22;1796;52.388;13.096;2023-11-22T11:40:41;1.10;99.90
3564;DHT22;1796;52.388;13.096;2023-11-22T11:43:10;1.10;99.90
3564;DHT22;1796;52.388;13.096;2023-11-22T11:45:38;1.10;99.90
3564;DHT22;1796;52.388;13.096;2023-11-22T11:48:12;1.10;99.90
3564;DHT22;1796;52.388;13.096;2023-11-22T11:50:39;1.10;99.90
3564;DHT22;1796;52.388;13.096;2023-11-22T11:53:06;1.10;99.90
3564;DHT22;1796;52.388;13.096;2023-11-22T11:55:33;1.20;99.90
3564;DHT22;1796;52.388;13.096;2023-11-22T11:58:06;1.30;99.90
3564;DHT22;1796;52.388;13.096;2023-11-22T12:00:36;1.30;99.90
3564;DHT22;1796;52.388;13.096;2023-11-22T12:03:06;1.30;99.90
3564;DHT22;1796;52.388;13.096;2023-11-22T12:05:35;1.30;99.90
3564;DHT22;1796;52.388;13.096;2023-11-22T12:08:02;1.30;99.90
3564;DHT22;1796;52.388;13.096;2023-11-22T12:10:29;1.30;99.90
3564;DHT22;1796;52.388;13.096;2023-11-22T12:12:56;1.30;99.90
3564;DHT22;1796;52.388;13.096;2023-11-22T12:15:25;1.30;99.90
3564;DHT22;1796;52.388;13.096;2023-11-22T12:17:52;1.10;99.90
3564;DHT22;1796;52.388;13.096;2023-11-22T12:20:23;1.10;99.90
3564;DHT22;1796;52.388;13.096;2023-11-22T12:22:51;1.20;99.90
3564;DHT22;1796;52.388;13.096;2023-11-22T12:25:18;1.30;99.90
3564;DHT22;1796;52.388;13.096;2023-11-22T12:27:46;1.40;99.90
3564;DHT22;1796;52.388;13.096;2023-11-22T12:30:30;1.40;99.90
3564;DHT22;1796;52.388;13.096;2023-11-22T12:33:00;1.40;99.90
3564;DHT22;1796;52.388;13.096;2023-11-22T12:35:29;1.40;99.90
3564;DHT22;1796;52.388;13.096;2023-11-22T12:37:55;1.50;99.90
3564;DHT22;1796;52.388;13.096;2023-11-22T12:40:23;1.60;99.90
3564;DHT22;1796;52.388;13.096;2023-11-22T12:42:50;1.50;99.90
3564;DHT22;1796;52.388;13.096;2023-11-22T12:45:20;1.60;99.90
3564;DHT22;1796;52.388;13.096;2023-11-22T12:47:50;1.60;99.90
3564;DHT22;1796;52.388;13.096;2023-11-22T12:50:34;1.70;99.90
3564;DHT22;1796;52.388;13.096;2023-11-22T12:53:10;1.70;99.90
3564;DHT22;1796;52.388;13.096;2023-11-22T12:55:38;1.70;99.90
3564;DHT22;1796;52.388;13.096;2023-11-22T12:58:05;1.70;99.90
3564;DHT22;1796;52.388;13.096;2023-11-22T13:00:33;1.80;99.90
3564;DHT22;1796;52.388;13.096;2023-11-22T13:03:01;1.80;99.90
3564;DHT22;1796;52.388;13.096;2023-11-22T13:05:28;1.60;99.90
3564;DHT22;1796;52.388;13.096;2023-11-22T13:07:55;1.60;99.90
3564;DHT22;1796;52.388;13.096;2023-11-22T13:10:22;1.60;99.90
3564;DHT22;1796;52.388;13.096;2023-11-22T13:12:52;1.50;99.90
3564;DHT22;1796;52.388;13.096;2023-11-22T13:15:20;1.60;99.90
3564;DHT22;1796;52.388;13.096;2023-11-22T13:17:49;1.60;99.90
3564;DHT22;1796;52.388;13.096;2023-11-22T13:20:22;1.60;99.90
3564;DHT22;1796;52.388;13.096;2023-11-22T13:22:51;1.60;99.90
3564;DHT22;1796;52.388;13.096;2023-11-22T13:25:18;1.60;99.90
3564;DHT22;1796;52.388;13.096;2023-11-22T13:27:46;1.50;99.90
3564;DHT22;1796;52.388;13.096;2023-11-22T13:30:13;1.40;99.90
3564;DHT22;1796;52.388;13.096;2023-11-22T13:32:41;1.50;99.90
3564;DHT22;1796;52.388;13.096;2023-11-22T13:35:09;1.40;99.90
3564;DHT22;1796;52.388;13.096;2023-11-22T13:37:42;1.40;99.90
3564;DHT22;1796;52.388;13.096;2023-11-22T13:40:11;1.50;99.90
3564;DHT22;1796;52.388;13.096;2023-11-22T13:42:41;1.40;99.90
3564;DHT22;1796;52.388;13.096;2023-11-22T13:45:09;1.40;99.90
3564;DHT22;1796;52.388;13.096;2023-11-22T13:47:36;1.40;99.90
3564;DHT22;1796;52.388;13.096;2023-11-22T13:50:05;1.30;99.90
3564;DHT22;1796;52.388;13.096;2023-11-22T13:52:32;1.30;99.90
3564;DHT22;1796;52.388;13.096;2023-11-22T13:55:00;1.30;99.90
3564;DHT22;1796;52.388;13.096;2023-11-22T13:57:31;1.20;99.90
3564;DHT22;1796;52.388;13.096;2023-11-22T13:59:58;1.20;99.90
3564;DHT22;1796;52.388;13.096;2023-11-22T14:02:25;1.10;99.90
3564;DHT22;1796;52.388;13.096;2023-11-22T14:04:52;1.10;99.90
3564;DHT22;1796;52.388;13.096;2023-11-22T14:07:19;1.10;99.90
3564;DHT22;1796;52.388;13.096;2023-11-22T14:09:46;1.10;99.90
3564;DHT22;1796;52.388;13.096;2023-11-22T14:12:14;1.10;99.90
3564;DHT22;1796;52.388;13.096;2023-11-22T14:14:41;1.00;99.90
3564;DHT22;1796;52.388;13.096;2023-11-22T14:17:08;1.00;99.90
3564;DHT22;1796;52.388;13.096;2023-11-22T14:19:35;1.00;99.90
3564;DHT22;1796;52.388;13.096;2023-11-22T14:22:02;1.00;99.90
3564;DHT22;1796;52.388;13.096;2023-11-22T14:24:35;1.00;99.90
3564;DHT22;1796;52.388;13.096;2023-11-22T14:27:05;0.90;99.90
3564;DHT22;1796;52.388;13.096;2023-11-22T14:29:33;0.80;99.90
3564;DHT22;1796;52.388;13.096;2023-11-22T14:32:00;0.80;99.90
3564;DHT22;1796;52.388;13.096;2023-11-22T14:34:27;0.70;99.90
3564;DHT22;1796;52.388;13.096;2023-11-22T14:36:54;0.60;99.90
3564;DHT22;1796;52.388;13.096;2023-11-22T14:39:21;0.60;99.90
3564;DHT22;1796;52.388;13.096;2023-11-22T14:41:49;0.50;99.90
3564;DHT22;1796;52.388;13.096;2023-11-22T14:44:16;0.50;99.90
3564;DHT22;1796;52.388;13.096;2023-11-22T14:46:45;0.40;99.90
3564;DHT22;1796;52.388;13.096;2023-11-22T14:49:14;0.40;99.90
3564;DHT22;1796;52.388;13.096;2023-11-22T14:51:41;0.40;99.90
3564;DHT22;1796;52.388;13.096;2023-11-22T14:54:08;0.40;99.90
3564;DHT22;1796;52.388;13.096;2023-11-22T14:56:34;0.30;99.90
3564;DHT22;1796;52.388;13.096;2023-11-22T14:59:03;0.30;99.90
3564;DHT22;1796;52.388;13.096;2023-11-22T15:01:31;0.20;99.90
3564;DHT22;1796;52.388;13.096;2023-11-22T15:04:00;0.20;99.90
3564;DHT22;1796;52.388;13.096;2023-11-22T15:06:27;0.20;99.90
3564;DHT22;1796;52.388;13.096;2023-11-22T15:08:54;0.20;99.90
3564;DHT22;1796;52.388;13.096;2023-11-22T15:11:22;0.20;99.90
3564;DHT22;1796;52.388;13.096;2023-11-22T15:13:49;0.20;99.90
3564;DHT22;1796;52.388;13.096;2023-11-22T15:16:17;0.20;99.90
3564;DHT22;1796;52.388;13.096;2023-11-22T15:18:44;0.10;99.90
3564;DHT22;1796;52.388;13.096;2023-11-22T15:21:12;0.10;99.90
3564;DHT22;1796;52.388;13.096;2023-11-22T15:23:39;0.10;99.90
3564;DHT22;1796;52.388;13.096;2023-11-22T15:26:07;0.10;99.90
3564;DHT22;1796;52.388;13.096;2023-11-22T15:28:34;0.00;99.90
3564;DHT22;1796;52.388;13.096;2023-11-22T15:31:01;0.00;99.90
3564;DHT22;1796;52.388;13.096;2023-11-22T15:33:28;0.10;99.90
3564;DHT22;1796;52.388;13.096;2023-11-22T15:35:55;0.20;99.90
3564;DHT22;1796;52.388;13.096;2023-11-22T15:38:27;0.20;99.90
3564;DHT22;1796;52.388;13.096;2023-11-22T15:40:56;0.30;99.90
3564;DHT22;1796;52.388;13.096;2023-11-22T15:43:25;0.30;99.90
3564;DHT22;1796;52.388;13.096;2023-11-22T15:45:53;0.30;99.90
3564;DHT22;1796;52.388;13.096;2023-11-22T15:48:23;0.20;99.90
3564;DHT22;1796;52.388;13.096;2023-11-22T15:50:51;0.20;99.90
3564;DHT22;1796;52.388;13.096;2023-11-22T15:53:18;0.20;99.90
3564;DHT22;1796;52.388;13.096;2023-11-22T15:55:49;0.10;99.90
3564;DHT22;1796;52.388;13.096;2023-11-22T15:58:21;0.10;99.90
3564;DHT22;1796;52.388;13.096;2023-11-22T16:00:48;0.10;99.90